Time;durP1;ratioP1;P1;durP2;ratioP2;P2;SDS_P1;SDS_P2;PMS_P1;PMS_P2;Temp;Humidity;BMP_temperature;BMP_pressure;BME280_temperature;BME280_humidity;BME280_pressure;Samples;Min_cycle;Max_cycle;Signal;HPM_P1;HPM_P2
2022/09/02 00:01:16;;;;;;;5.82;1.50;;;14.90;99.90;;;;;;5027980;28;20033;-56
2022/09/02 00:03:43;;;;;;;1.75;1.38;;;14.90;99.90;;;;;;5027616;28;20045;-56
2022/09/02 00:06:09;;;;;;;3.80;1.35;;;14.90;99.90;;;;;;5029748;28;20120;-58
2022/09/02 00:08:35;;;;;;;2.35;1.40;;;14.90;99.90;;;;;;5033282;28;20060;-57
2022/09/02 00:11:02;;;;;;;2.38;1.50;;;14.80;99.90;;;;;;5027452;28;20038;-58
2022/09/02 00:13:29;;;;;;;2.95;1.50;;;14.80;99.90;;;;;;5036232;28;20072;-57
2022/09/02 00:15:55;;;;;;;4.10;1.52;;;14.80;99.90;;;;;;5046987;28;20049;-57
2022/09/02 00:18:23;;;;;;;1.95;1.33;;;14.80;99.90;;;;;;5046962;28;20516;-57
2022/09/02 00:20:49;;;;;;;4.53;1.30;;;14.80;99.90;;;;;;5047144;28;20055;-58
2022/09/02 00:23:15;;;;;;;2.10;1.50;;;14.70;99.90;;;;;;5045676;28;20092;-57
2022/09/02 00:25:43;;;;;;;4.90;1.58;;;14.80;99.90;;;;;;5046848;28;20712;-57
2022/09/02 00:28:10;;;;;;;3.25;1.55;;;14.60;99.90;;;;;;5046858;28;20045;-58
2022/09/02 00:30:36;;;;;;;3.03;1.40;;;14.70;99.90;;;;;;5046696;28;20080;-58
2022/09/02 00:33:02;;;;;;;4.43;1.70;;;14.60;99.90;;;;;;5046675;28;20041;-59
2022/09/02 00:35:28;;;;;;;2.13;1.42;;;14.60;99.90;;;;;;5046935;28;20048;-57
2022/09/02 00:37:53;;;;;;;3.10;1.45;;;14.60;99.90;;;;;;5047193;28;20072;-57
2022/09/02 00:40:19;;;;;;;1.73;1.30;;;14.50;99.90;;;;;;5029022;28;20398;-62
2022/09/02 00:42:45;;;;;;;3.90;1.50;;;14.50;99.90;;;;;;5046555;28;20056;-60
2022/09/02 00:45:12;;;;;;;2.60;1.60;;;14.50;99.90;;;;;;5046069;28;20111;-59
2022/09/02 00:47:38;;;;;;;4.40;1.50;;;14.60;99.90;;;;;;5045494;28;20088;-58
2022/09/02 00:50:10;;;;;;;3.17;1.50;;;14.50;99.90;;;;;;5046674;28;20076;-57
2022/09/02 00:52:44;;;;;;;5.03;1.58;;;14.50;99.90;;;;;;5046818;28;20049;-57
2022/09/02 00:55:15;;;;;;;2.38;1.52;;;14.50;99.90;;;;;;5046453;28;20061;-57
2022/09/02 00:57:46;;;;;;;3.45;1.88;;;14.30;99.90;;;;;;5046675;28;20429;-57
2022/09/02 01:00:16;;;;;;;2.15;1.40;;;14.30;99.90;;;;;;5046379;28;20550;-58
2022/09/02 01:02:45;;;;;;;2.92;1.50;;;14.20;99.90;;;;;;5046073;28;20052;-56
2022/09/02 01:05:14;;;;;;;2.88;1.48;;;14.30;99.90;;;;;;5044746;28;20076;-58
2022/09/02 01:07:40;;;;;;;2.17;1.40;;;14.20;99.90;;;;;;5036698;28;20106;-57
2022/09/02 01:10:12;;;;;;;5.38;1.65;;;14.20;99.90;;;;;;5026599;28;20255;-57
2022/09/02 01:12:38;;;;;;;2.55;1.50;;;14.30;99.90;;;;;;5058121;28;20099;-57
2022/09/02 01:15:06;;;;;;;2.38;1.65;;;14.20;99.90;;;;;;5026254;28;20049;-58
2022/09/02 01:17:33;;;;;;;2.22;1.50;;;14.20;99.90;;;;;;5025468;28;20046;-59
2022/09/02 01:20:10;;;;;;;6.72;1.77;;;14.10;99.90;;;;;;5026509;28;20124;-57
2022/09/02 01:22:37;;;;;;;2.47;1.60;;;14.10;99.90;;;;;;5024245;28;20061;-57
2022/09/02 01:25:07;;;;;;;3.15;1.60;;;14.10;99.90;;;;;;5026177;28;20091;-58
2022/09/02 01:27:33;;;;;;;2.53;1.50;;;14.00;99.90;;;;;;5026075;28;20049;-58
2022/09/02 01:29:59;;;;;;;2.17;1.60;;;13.90;99.90;;;;;;5026162;28;20056;-57
2022/09/02 01:32:28;;;;;;;2.67;1.50;;;13.80;99.90;;;;;;5025635;28;20243;-57
2022/09/02 01:34:54;;;;;;;2.95;1.67;;;13.70;99.90;;;;;;5025791;28;20132;-57
2022/09/02 01:37:21;;;;;;;2.15;1.50;;;13.70;99.90;;;;;;5041457;28;20125;-57
2022/09/02 01:39:48;;;;;;;4.28;1.67;;;13.80;99.90;;;;;;5025255;28;20041;-57
2022/09/02 01:42:14;;;;;;;4.25;1.75;;;13.70;99.90;;;;;;5024651;28;20142;-57
2022/09/02 01:44:42;;;;;;;2.20;1.60;;;13.70;99.90;;;;;;5025953;28;20033;-58
2022/09/02 01:47:22;;;;;;;3.90;1.70;;;13.60;99.90;;;;;;5022544;28;20041;-58
2022/09/02 01:49:48;;;;;;;3.20;1.65;;;13.70;99.90;;;;;;5025459;28;20053;-57
2022/09/02 01:52:14;;;;;;;3.45;1.85;;;13.60;99.90;;;;;;5024716;28;20052;-57
2022/09/02 01:54:43;;;;;;;3.22;1.80;;;13.60;99.90;;;;;;5024886;28;20524;-57
2022/09/02 01:57:09;;;;;;;10.98;2.00;;;13.50;99.90;;;;;;5025544;28;20037;-58
2022/09/02 01:59:35;;;;;;;3.05;1.80;;;13.60;99.90;;;;;;5025403;28;20041;-57
2022/09/02 02:02:01;;;;;;;3.30;1.80;;;13.60;99.90;;;;;;5025055;28;20103;-57
2022/09/02 02:04:27;;;;;;;2.53;1.67;;;13.50;99.90;;;;;;5025789;28;20049;-57
2022/09/02 02:06:53;;;;;;;2.60;1.80;;;13.60;99.90;;;;;;5035232;28;20041;-58
2022/09/02 02:09:20;;;;;;;7.65;1.95;;;13.50;99.90;;;;;;5026015;28;20048;-59
2022/09/02 02:11:46;;;;;;;2.88;1.67;;;13.40;99.90;;;;;;5025100;28;20049;-57
2022/09/02 02:14:12;;;;;;;4.13;1.83;;;13.40;99.90;;;;;;5025377;28;20068;-58
2022/09/02 02:16:38;;;;;;;3.50;1.92;;;13.30;99.90;;;;;;5023248;28;20526;-58
2022/09/02 02:19:04;;;;;;;3.05;2.00;;;13.30;99.90;;;;;;5025186;28;20120;-58
2022/09/02 02:21:30;;;;;;;2.72;1.90;;;13.40;99.90;;;;;;5025413;28;20044;-58
2022/09/02 02:23:59;;;;;;;3.85;1.75;;;13.40;99.90;;;;;;5024988;28;20086;-57
2022/09/02 02:26:24;;;;;;;6.20;1.90;;;13.40;99.90;;;;;;5024928;28;20057;-57
2022/09/02 02:28:50;;;;;;;4.22;1.80;;;13.40;99.90;;;;;;5057009;28;20107;-57
2022/09/02 02:31:15;;;;;;;3.05;1.83;;;13.40;99.90;;;;;;5023143;28;20072;-57
2022/09/02 02:33:41;;;;;;;3.63;1.83;;;13.40;99.90;;;;;;5024484;28;20509;-57
2022/09/02 02:36:07;;;;;;;2.75;2.00;;;13.40;99.90;;;;;;5024649;28;20041;-57
2022/09/02 02:38:35;;;;;;;3.92;1.88;;;13.40;99.90;;;;;;5025151;28;20049;-57
2022/09/02 02:41:01;;;;;;;3.15;1.92;;;13.40;99.90;;;;;;5025235;28;20037;-57
2022/09/02 02:43:27;;;;;;;2.40;1.70;;;13.40;99.90;;;;;;5025170;28;20046;-57
2022/09/02 02:45:53;;;;;;;4.80;1.77;;;13.30;99.90;;;;;;5024312;28;20060;-58
2022/09/02 02:48:20;;;;;;;4.05;2.10;;;13.30;99.90;;;;;;5024723;28;20505;-57
2022/09/02 02:50:46;;;;;;;3.70;1.80;;;13.20;99.90;;;;;;5024605;28;20455;-57
2022/09/02 02:53:11;;;;;;;4.80;2.03;;;13.20;99.90;;;;;;5024812;28;20128;-57
2022/09/02 02:55:37;;;;;;;7.47;1.90;;;13.20;99.90;;;;;;5024546;28;20197;-58
2022/09/02 02:58:04;;;;;;;3.42;1.90;;;13.20;99.90;;;;;;5024470;28;20041;-62
2022/09/02 03:00:32;;;;;;;2.72;1.80;;;13.20;99.90;;;;;;5024751;28;20041;-57
2022/09/02 03:03:06;;;;;;;2.75;1.75;;;13.10;99.90;;;;;;5024038;28;20041;-58
2022/09/02 03:05:34;;;;;;;3.10;1.98;;;13.10;99.90;;;;;;5027086;28;20037;-58
2022/09/02 03:08:00;;;;;;;2.08;1.63;;;13.10;99.90;;;;;;5033294;28;20041;-58
2022/09/02 03:10:26;;;;;;;4.95;2.20;;;13.10;99.90;;;;;;5024876;28;20049;-57
2022/09/02 03:12:51;;;;;;;3.78;2.15;;;13.00;99.90;;;;;;5024208;28;20061;-57
2022/09/02 03:15:19;;;;;;;2.92;2.13;;;13.00;99.90;;;;;;5024472;28;20042;-58
2022/09/02 03:17:46;;;;;;;2.92;2.15;;;13.00;99.90;;;;;;5023548;28;20050;-57
2022/09/02 03:20:14;;;;;;;3.22;1.90;;;12.90;99.90;;;;;;5024607;28;20041;-57
2022/09/02 03:22:44;;;;;;;2.63;1.90;;;12.90;99.90;;;;;;5023578;28;20053;-57
2022/09/02 03:25:11;;;;;;;5.55;2.25;;;12.90;99.90;;;;;;5024785;28;20060;-57
2022/09/02 03:27:38;;;;;;;4.10;1.92;;;12.90;99.90;;;;;;5024223;28;20045;-58
2022/09/02 03:30:07;;;;;;;2.83;1.80;;;12.90;99.90;;;;;;5024652;28;20046;-58
2022/09/02 03:32:33;;;;;;;3.33;1.95;;;12.90;99.90;;;;;;5023471;28;20037;-58
2022/09/02 03:35:00;;;;;;;3.55;1.70;;;12.90;99.90;;;;;;5024384;28;20509;-56
2022/09/02 03:37:26;;;;;;;2.67;1.80;;;13.00;99.90;;;;;;5024682;28;20065;-57
2022/09/02 03:39:52;;;;;;;2.45;1.80;;;12.90;99.90;;;;;;5023793;28;20414;-58
2022/09/02 03:42:17;;;;;;;2.67;1.95;;;12.80;99.90;;;;;;5042492;28;20045;-57
2022/09/02 03:44:43;;;;;;;2.72;1.90;;;12.90;99.90;;;;;;5043889;28;20101;-58
2022/09/02 03:47:09;;;;;;;5.95;2.30;;;12.80;99.90;;;;;;5043106;28;20037;-58
2022/09/02 03:49:35;;;;;;;4.05;1.98;;;12.80;99.90;;;;;;5044094;28;20090;-56
2022/09/02 03:52:01;;;;;;;3.38;1.90;;;12.70;99.90;;;;;;5044404;28;20515;-57
2022/09/02 03:54:26;;;;;;;4.68;2.00;;;12.70;99.90;;;;;;5044470;28;20409;-58
2022/09/02 03:56:52;;;;;;;3.88;2.10;;;12.70;99.90;;;;;;5043065;28;20124;-58
2022/09/02 03:59:18;;;;;;;3.28;2.00;;;12.70;99.90;;;;;;5044068;28;20041;-60
2022/09/02 04:01:44;;;;;;;6.72;2.30;;;12.60;99.90;;;;;;5042721;28;20448;-58
2022/09/02 04:04:11;;;;;;;3.25;1.80;;;12.60;99.90;;;;;;5043650;28;20055;-57
2022/09/02 04:06:37;;;;;;;3.00;1.83;;;12.70;99.90;;;;;;5037324;28;20049;-57
2022/09/02 04:09:03;;;;;;;3.55;2.20;;;12.60;99.90;;;;;;5028023;28;20068;-57
2022/09/02 04:11:29;;;;;;;2.50;1.88;;;12.50;99.90;;;;;;5028007;28;20049;-58
2022/09/02 04:13:55;;;;;;;3.35;2.00;;;12.60;99.90;;;;;;5026855;28;20129;-58
2022/09/02 04:16:27;;;;;;;2.50;1.85;;;12.60;99.90;;;;;;5026697;28;20472;-57
2022/09/02 04:18:55;;;;;;;2.45;1.73;;;12.60;99.90;;;;;;5027321;28;20042;-58
2022/09/02 04:21:21;;;;;;;3.00;2.03;;;12.50;99.90;;;;;;5027271;28;20057;-57
2022/09/02 04:23:46;;;;;;;3.03;2.00;;;12.50;99.90;;;;;;5027308;28;20201;-57
2022/09/02 04:26:15;;;;;;;3.72;1.80;;;12.50;99.90;;;;;;5027485;28;20045;-57
2022/09/02 04:28:41;;;;;;;4.53;2.20;;;12.50;99.90;;;;;;5026657;28;20050;-57
2022/09/02 04:31:10;;;;;;;4.68;2.25;;;12.60;99.90;;;;;;5026552;28;20512;-57
2022/09/02 04:33:36;;;;;;;3.15;2.10;;;12.50;99.90;;;;;;5027137;28;20041;-58
2022/09/02 04:36:11;;;;;;;3.20;2.17;;;12.40;99.90;;;;;;5026778;28;20116;-59
2022/09/02 04:38:36;;;;;;;;;;;12.40;99.90;;;;;;5027189;28;20501;-58
2022/09/02 04:41:23;;;;;;;3.03;2.13;;;12.40;99.90;;;;;;5027005;28;19921;-58
2022/09/02 04:43:51;;;;;;;3.00;1.80;;;12.60;99.90;;;;;;5026059;28;20132;-57
2022/09/02 04:46:18;;;;;;;5.13;2.05;;;12.30;99.90;;;;;;5025112;28;20214;-57
2022/09/02 04:48:46;;;;;;;3.72;2.10;;;12.30;99.90;;;;;;5026520;28;20095;-57
2022/09/02 04:51:18;;;;;;;2.90;2.10;;;12.20;99.90;;;;;;5026764;28;20045;-57
2022/09/02 04:53:44;;;;;;;3.33;2.22;;;12.30;99.90;;;;;;5026582;28;20972;-58
2022/09/02 04:56:13;;;;;;;3.08;2.00;;;12.20;99.90;;;;;;5026938;28;20049;-58
2022/09/02 04:58:40;;;;;;;4.10;2.10;;;12.20;99.90;;;;;;5026592;28;20092;-58
2022/09/02 05:01:06;;;;;;;3.45;2.40;;;12.20;99.90;;;;;;5025977;28;20092;-58
2022/09/02 05:03:32;;;;;;;4.35;2.03;;;12.20;99.90;;;;;;5026286;28;20136;-58
2022/09/02 05:06:00;;;;;;;4.75;1.98;;;12.30;99.90;;;;;;5060899;28;20133;-58
2022/09/02 05:08:26;;;;;;;3.03;1.80;;;12.10;99.90;;;;;;5034823;28;20077;-61
2022/09/02 05:10:52;;;;;;;2.75;2.10;;;12.50;99.90;;;;;;5024826;28;20497;-57
2022/09/02 05:13:18;;;;;;;6.55;2.47;;;12.30;99.90;;;;;;5025775;28;20449;-58
2022/09/02 05:15:44;;;;;;;3.78;2.17;;;12.30;99.90;;;;;;5025135;28;20434;-57
2022/09/02 05:18:10;;;;;;;3.83;1.90;;;12.40;99.90;;;;;;5026420;28;20053;-58
2022/09/02 05:20:41;;;;;;;3.08;1.80;;;12.40;99.90;;;;;;5024690;28;20088;-58
2022/09/02 05:23:07;;;;;;;3.58;2.00;;;12.30;99.90;;;;;;5026389;28;20933;-58
2022/09/02 05:25:33;;;;;;;4.38;2.25;;;12.30;99.90;;;;;;5025852;28;20053;-58
2022/09/02 05:27:59;;;;;;;5.05;2.00;;;12.30;99.90;;;;;;5026470;28;20037;-58
2022/09/02 05:30:25;;;;;;;2.70;1.98;;;12.30;99.90;;;;;;5025233;28;20391;-58
2022/09/02 05:32:50;;;;;;;2.42;1.90;;;12.30;99.90;;;;;;5040797;28;20064;-57
2022/09/02 05:35:16;;;;;;;5.22;2.65;;;12.30;99.90;;;;;;5025816;28;20048;-59
2022/09/02 05:37:42;;;;;;;2.13;1.70;;;12.40;99.90;;;;;;5025164;28;20050;-57
2022/09/02 05:40:08;;;;;;;4.53;2.05;;;12.70;99.90;;;;;;5025892;28;20045;-57
2022/09/02 05:42:34;;;;;;;4.13;1.85;;;12.80;99.90;;;;;;5025789;28;20367;-59
2022/09/02 05:45:00;;;;;;;4.38;2.00;;;13.20;99.90;;;;;;5026049;28;20052;-57
2022/09/02 05:47:25;;;;;;;3.80;1.90;;;13.60;99.90;;;;;;5024884;28;20050;-58
2022/09/02 05:49:51;;;;;;;2.95;1.90;;;14.10;99.90;;;;;;5025512;28;20073;-57
2022/09/02 05:52:17;;;;;;;3.83;1.83;;;14.40;99.90;;;;;;5025480;28;20049;-58
2022/09/02 05:54:43;;;;;;;4.07;1.83;;;14.40;99.90;;;;;;5025181;28;20049;-58
2022/09/02 05:57:12;;;;;;;3.58;1.90;;;14.30;99.90;;;;;;5025777;28;20123;-58
2022/09/02 05:59:41;;;;;;;4.28;2.20;;;14.10;99.90;;;;;;5025511;28;20172;-57
2022/09/02 06:02:12;;;;;;;3.40;2.10;;;14.20;99.90;;;;;;5024780;28;20422;-58
2022/09/02 06:04:47;;;;;;;2.97;1.80;;;14.40;99.90;;;;;;5025549;28;20049;-57
2022/09/02 06:07:14;;;;;;;4.50;1.80;;;14.80;99.90;;;;;;5036696;28;20052;-58
2022/09/02 06:09:39;;;;;;;3.58;2.10;;;14.90;99.90;;;;;;5024746;28;20045;-57
2022/09/02 06:12:07;;;;;;;4.25;1.83;;;15.10;99.90;;;;;;5025339;28;20107;-57
2022/09/02 06:14:33;;;;;;;3.38;1.90;;;15.30;99.90;;;;;;5025388;28;20054;-58
2022/09/02 06:16:59;;;;;;;4.80;1.98;;;15.30;99.90;;;;;;5024220;28;20307;-58
2022/09/02 06:19:26;;;;;;;2.30;1.60;;;15.60;99.90;;;;;;5025362;28;20546;-57
2022/09/02 06:21:53;;;;;;;3.92;1.60;;;15.90;99.90;;;;;;5024818;28;20053;-58
2022/09/02 06:24:20;;;;;;;3.33;1.80;;;16.10;99.90;;;;;;5025224;28;20077;-58
2022/09/02 06:26:46;;;;;;;4.45;1.70;;;16.40;99.90;;;;;;5024773;28;20044;-58
2022/09/02 06:29:12;;;;;;;4.38;1.75;;;16.50;99.90;;;;;;5025538;28;20415;-58
2022/09/02 06:31:43;;;;;;;3.22;1.58;;;16.60;99.90;;;;;;5023987;28;20116;-57
2022/09/02 06:34:11;;;;;;;4.30;1.90;;;16.90;99.90;;;;;;5024628;28;20072;-58
2022/09/02 06:36:37;;;;;;;2.30;1.50;;;17.00;99.90;;;;;;5024789;28;20456;-58
2022/09/02 06:39:03;;;;;;;4.60;1.88;;;17.30;99.90;;;;;;5025171;28;20041;-58
2022/09/02 06:41:32;;;;;;;2.67;1.60;;;17.30;99.90;;;;;;5024762;28;20092;-58
2022/09/02 06:44:00;;;;;;;2.83;1.60;;;17.20;99.90;;;;;;5057063;28;20053;-58
2022/09/02 06:46:33;;;;;;;3.58;1.70;;;17.50;99.90;;;;;;5024399;28;20095;-58
2022/09/02 06:49:00;;;;;;;2.83;1.48;;;17.50;99.90;;;;;;5024759;28;20045;-57
2022/09/02 06:51:31;;;;;;;2.58;1.63;;;17.80;99.90;;;;;;5024955;28;20045;-57
2022/09/02 06:53:57;;;;;;;2.63;1.50;;;17.70;99.90;;;;;;5024799;28;20092;-56
2022/09/02 06:56:23;;;;;;;2.95;1.90;;;17.90;99.90;;;;;;5024343;28;20103;-57
2022/09/02 06:58:49;;;;;;;3.95;1.33;;;18.00;99.90;;;;;;5024237;28;20523;-58
2022/09/02 07:01:23;;;;;;;4.88;1.98;;;18.30;99.90;;;;;;5023879;28;20048;-57
2022/09/02 07:06:39;;;;;;;6.03;1.90;;;18.20;99.90;;;;;;5031756;28;20045;-58
2022/09/02 07:09:06;;;;;;;3.45;1.90;;;18.40;99.90;;;;;;5026243;28;20089;-58
2022/09/02 07:11:33;;;;;;;2.58;1.70;;;18.80;99.90;;;;;;5024579;28;20049;-58
2022/09/02 07:14:00;;;;;;;2.17;1.48;;;18.60;99.90;;;;;;5024705;28;20049;-57
2022/09/02 07:16:28;;;;;;;4.63;1.85;;;18.70;99.90;;;;;;5024253;28;20041;-57
2022/09/02 07:18:54;;;;;;;2.90;1.50;;;18.80;99.90;;;;;;5023716;28;20128;-57
2022/09/02 07:21:20;;;;;;;4.60;1.67;;;19.00;99.90;;;;;;5024426;28;20192;-57
2022/09/02 07:23:45;;;;;;;3.22;1.70;;;19.20;99.90;;;;;;5022718;28;20556;-57
2022/09/02 07:26:13;;;;;;;2.47;1.65;;;19.50;99.90;;;;;;5022036;28;20453;-57
2022/09/02 07:28:39;;;;;;;3.08;1.70;;;19.60;99.90;;;;;;5023150;28;20088;-58
2022/09/02 07:31:13;;;;;;;3.33;1.63;;;19.80;99.90;;;;;;5023630;28;20053;-58
2022/09/02 07:33:39;;;;;;;3.88;1.40;;;19.40;99.90;;;;;;5023565;28;20428;-58
2022/09/02 07:36:06;;;;;;;2.42;1.55;;;19.60;99.90;;;;;;5037320;28;20045;-58
2022/09/02 07:38:33;;;;;;;2.88;1.60;;;19.90;99.90;;;;;;5044072;28;20639;-57
2022/09/02 07:40:59;;;;;;;3.17;1.67;;;20.00;99.90;;;;;;5042896;28;20045;-58
2022/09/02 07:43:26;;;;;;;3.88;1.83;;;20.10;99.90;;;;;;5044051;28;20076;-56
2022/09/02 07:45:54;;;;;;;4.80;1.70;;;20.00;99.90;;;;;;5046713;28;20433;-58
2022/09/02 07:48:21;;;;;;;6.30;1.65;;;20.20;99.90;;;;;;5048119;28;20048;-58
2022/09/02 07:50:47;;;;;;;4.28;1.67;;;20.20;99.90;;;;;;5046957;28;20125;-57
2022/09/02 07:53:15;;;;;;;7.65;1.70;;;20.50;99.90;;;;;;5048000;28;20056;-58
2022/09/02 07:55:42;;;;;;;3.85;1.88;;;20.70;99.90;;;;;;5047938;28;20408;-58
2022/09/02 07:58:08;;;;;;;3.35;1.73;;;20.90;99.90;;;;;;5047620;28;20033;-58
2022/09/02 08:00:35;;;;;;;2.80;1.77;;;20.50;99.90;;;;;;5045388;28;20124;-58
2022/09/02 08:03:00;;;;;;;4.18;1.80;;;20.90;99.90;;;;;;5046669;28;20476;-59
2022/09/02 08:05:27;;;;;;;4.03;1.70;;;20.80;99.90;;;;;;5045222;28;20117;-58
2022/09/02 08:07:53;;;;;;;4.93;1.83;;;20.80;99.90;;;;;;5035871;28;20045;-57
2022/09/02 08:10:19;;;;;;;3.15;1.70;;;20.90;99.90;;;;;;5027647;28;20049;-58
2022/09/02 08:12:46;;;;;;;4.22;1.90;;;20.90;99.90;;;;;;5027374;28;20060;-57
2022/09/02 08:15:13;;;;;;;6.13;1.80;;;21.00;99.90;;;;;;5026119;28;20049;-58
2022/09/02 08:17:39;;;;;;;5.18;1.98;;;21.20;99.90;;;;;;5027399;28;20401;-58
2022/09/02 08:20:10;;;;;;;3.28;2.20;;;21.40;99.90;;;;;;5027188;28;20073;-57
2022/09/02 08:22:37;;;;;;;6.35;1.90;;;21.20;99.90;;;;;;5046398;28;20107;-56
2022/09/02 08:25:03;;;;;;;2.50;1.85;;;21.10;99.90;;;;;;5047422;28;20078;-58
2022/09/02 08:27:29;;;;;;;3.88;2.00;;;21.10;99.90;;;;;;5047696;28;20048;-57
2022/09/02 08:29:55;;;;;;;3.90;2.13;;;20.90;99.90;;;;;;5045831;28;20497;-58
2022/09/02 08:32:21;;;;;;;2.90;1.80;;;20.70;99.90;;;;;;5047069;28;20254;-58
2022/09/02 08:34:46;;;;;;;5.07;2.40;;;20.40;99.90;;;;;;5046707;28;20401;-58
2022/09/02 08:37:12;;;;;;;5.80;2.20;;;20.20;99.90;;;;;;5047068;28;20149;-58
2022/09/02 08:39:38;;;;;;;3.50;2.08;;;20.20;99.90;;;;;;5046378;28;20063;-57
2022/09/02 08:42:22;;;;;;;3.17;1.98;;;20.20;99.90;;;;;;5047153;28;20532;-58
2022/09/02 08:44:53;;;;;;;5.43;2.05;;;20.20;99.90;;;;;;5046348;28;20044;-57
2022/09/02 08:47:23;;;;;;;7.60;2.08;;;20.20;99.90;;;;;;5046864;28;20052;-55
2022/09/02 08:50:00;;;;;;;4.70;1.60;;;20.10;99.90;;;;;;5046413;28;20053;-58
2022/09/02 08:52:51;;;;;;;4.57;1.90;;;20.10;99.90;;;;;;5046220;28;20068;-58
2022/09/02 08:55:23;;;;;;;4.00;1.73;;;20.40;99.90;;;;;;5026705;28;20073;-58
2022/09/02 08:57:49;;;;;;;2.97;1.60;;;20.90;99.90;;;;;;5045946;28;20044;-58
2022/09/02 09:00:16;;;;;;;2.20;1.40;;;21.30;99.90;;;;;;5045837;28;20052;-58
2022/09/02 09:03:12;;;;;;;4.75;1.70;;;22.00;99.90;;;;;;5044916;28;20055;-59
2022/09/02 09:06:05;;;;;;;3.42;1.67;;;22.20;99.90;;;;;;5042374;28;20132;-59
2022/09/02 09:08:52;;;;;;;3.35;1.50;;;22.60;99.90;;;;;;5038968;28;20041;-65
2022/09/02 09:12:04;;;;;;;3.90;1.60;;;22.50;99.90;;;;;;5046306;28;20472;-55
2022/09/02 09:14:37;;;;;;;3.53;1.60;;;22.40;99.90;;;;;;5044974;28;20052;-58
2022/09/02 09:17:15;;;;;;;4.20;1.50;;;22.40;99.90;;;;;;5042953;28;20642;-59
2022/09/02 09:19:57;;;;;;;4.25;1.20;;;22.80;99.90;;;;;;5045495;28;20473;-60
2022/09/02 09:22:36;;;;;;;4.60;1.83;;;22.40;99.90;;;;;;5043647;28;20052;-58
2022/09/02 09:25:06;;;;;;;5.28;1.80;;;22.40;99.90;;;;;;5045497;28;20060;-59
2022/09/02 09:27:31;;;;;;;3.92;1.45;;;22.80;99.90;;;;;;5043814;28;20128;-61
2022/09/02 09:29:58;;;;;;;3.92;1.70;;;23.30;99.90;;;;;;5043544;28;20170;-59
2022/09/02 09:32:36;;;;;;;3.58;1.70;;;23.00;99.90;;;;;;5045740;28;20443;-59
2022/09/02 09:35:10;;;;;;;9.52;2.40;;;22.60;99.90;;;;;;5077426;28;20045;-58
2022/09/02 09:40:27;;;;;;;3.85;1.70;;;23.00;99.90;;;;;;4229125;23;20296;-58
2022/09/02 09:43:04;;;;;;;2.88;1.48;;;23.20;99.90;;;;;;5029424;28;20045;-58
2022/09/02 09:45:39;;;;;;;3.33;1.63;;;23.10;99.90;;;;;;5032454;28;20124;-58
2022/09/02 11:12:30;;;;;;;4.85;1.13;;;25.40;99.90;;;;;;5110877;27;20343;-58
2022/09/02 11:15:05;;;;;;;5.53;1.50;;;24.80;99.90;;;;;;5089293;28;20072;-58
2022/09/02 11:17:58;;;;;;;5.13;1.63;;;25.30;99.90;;;;;;5089143;28;20457;-58
2022/09/02 11:20:47;;;;;;;2.95;1.23;;;25.30;99.90;;;;;;5088824;28;20067;-59
2022/09/02 11:23:24;;;;;;;3.13;1.30;;;25.60;99.90;;;;;;5088286;28;20056;-58
2022/09/02 11:26:04;;;;;;;1.92;1.20;;;25.50;99.90;;;;;;5087978;28;20067;-58
2022/09/02 11:28:34;;;;;;;2.35;1.20;;;25.60;99.90;;;;;;5088357;28;20035;-58
2022/09/02 11:31:11;;;;;;;2.28;1.40;;;25.50;99.90;;;;;;5088369;28;20036;-58
2022/09/02 11:33:52;;;;;;;4.53;1.25;;;25.80;99.90;;;;;;5088791;28;20459;-57
2022/09/02 11:36:17;;;;;;;3.10;1.33;;;25.70;99.90;;;;;;5087975;28;20072;-58
2022/09/02 11:38:52;;;;;;;2.13;1.10;;;25.30;99.90;;;;;;5087862;28;20074;-57
2022/09/02 11:41:36;;;;;;;6.57;1.20;;;25.60;99.90;;;;;;5083860;28;20055;-58
2022/09/02 11:44:22;;;;;;;4.65;1.40;;;25.80;99.90;;;;;;5086700;28;20047;-58
2022/09/02 11:47:09;;;;;;;2.30;1.15;;;25.80;99.90;;;;;;5086438;28;20046;-57
2022/09/02 11:49:48;;;;;;;3.00;1.10;;;26.00;99.90;;;;;;5087494;28;20036;-57
2022/09/02 11:52:32;;;;;;;3.60;1.25;;;25.80;99.90;;;;;;5087121;28;20059;-57
2022/09/02 11:55:07;;;;;;;2.35;1.20;;;25.70;99.90;;;;;;5085488;28;20142;-58
2022/09/02 11:57:34;;;;;;;2.50;1.10;;;25.70;99.90;;;;;;5086972;28;20119;-59
2022/09/02 12:00:01;;;;;;;3.90;1.05;;;25.70;99.90;;;;;;5087628;28;20075;-58
2022/09/02 12:02:39;;;;;;;3.08;1.00;;;25.80;99.90;;;;;;5119849;27;20052;-57
2022/09/02 12:05:38;;;;;;;2.42;0.98;;;26.10;99.90;;;;;;5087070;28;20505;-57
2022/09/02 12:08:26;;;;;;;3.03;1.20;;;26.10;99.90;;;;;;5074678;28;20062;-57
2022/09/02 12:10:52;;;;;;;1.95;1.00;;;26.00;99.90;;;;;;5086842;28;20143;-57
2022/09/02 12:13:36;;;;;;;2.92;1.25;;;25.90;99.90;;;;;;5086920;28;20139;-60
2022/09/02 12:16:14;;;;;;;3.25;0.90;;;26.00;99.90;;;;;;5087064;28;20383;-58
2022/09/02 12:19:06;;;;;;;3.63;0.90;;;25.90;99.30;;;;;;5086671;28;20406;-60
2022/09/02 12:21:34;;;;;;;6.82;1.70;;;25.80;99.40;;;;;;5085368;28;20047;-57
2022/09/02 12:23:59;;;;;;;2.97;0.90;;;25.60;99.50;;;;;;5073073;28;20102;-58
2022/09/02 12:26:29;;;;;;;3.58;1.10;;;25.70;99.80;;;;;;5073789;28;20043;-58
2022/09/02 12:29:10;;;;;;;6.10;1.20;;;25.90;99.90;;;;;;5073678;28;20040;-57
2022/09/02 12:31:44;;;;;;;3.17;0.90;;;25.70;99.50;;;;;;5073008;28;20098;-57
2022/09/02 12:34:19;;;;;;;6.05;1.02;;;25.80;99.80;;;;;;5072953;28;20056;-58
2022/09/02 12:36:50;;;;;;;3.42;1.10;;;26.00;99.90;;;;;;5072487;28;20046;-58
2022/09/02 12:39:28;;;;;;;5.10;1.20;;;26.00;99.10;;;;;;5073656;28;20068;-57
2022/09/02 12:41:56;;;;;;;5.00;1.20;;;26.00;99.50;;;;;;5073170;28;20044;-58
2022/09/02 12:44:40;;;;;;;1.92;0.93;;;25.90;99.40;;;;;;5073330;28;20047;-56
2022/09/02 12:47:25;;;;;;;1.92;0.85;;;25.90;99.20;;;;;;5073272;28;20047;-58
2022/09/02 12:50:03;;;;;;;;;;;25.90;99.20;;;;;;5072685;28;20051;-59
2022/09/02 12:52:35;;;;;;;2.63;1.00;;;26.00;98.50;;;;;;5072271;28;19928;-58
2022/09/02 12:55:25;;;;;;;2.90;0.93;;;26.20;98.90;;;;;;5073410;28;20044;-58
2022/09/02 12:58:09;;;;;;;4.47;1.20;;;26.40;98.90;;;;;;5068136;28;20569;-57
2022/09/02 13:01:02;;;;;;;3.60;0.82;;;26.20;98.20;;;;;;5105688;27;20047;-57
2022/09/02 13:03:31;;;;;;;4.10;1.00;;;26.10;98.40;;;;;;5072838;28;20044;-58
2022/09/02 13:06:08;;;;;;;2.03;1.00;;;26.10;98.50;;;;;;5072229;28;20494;-56
2022/09/02 13:09:14;;;;;;;4.43;1.27;;;26.30;99.00;;;;;;5072581;28;20044;-56
2022/09/02 13:12:29;;;;;;;5.45;1.20;;;26.00;98.10;;;;;;5071540;28;20575;-58
2022/09/02 13:15:04;;;;;;;5.30;1.37;;;26.10;99.90;;;;;;5068434;28;20056;-58
2022/09/02 13:17:45;;;;;;;4.72;1.00;;;26.00;98.20;;;;;;5069064;28;20317;-56
2022/09/02 13:20:39;;;;;;;6.15;1.10;;;25.80;98.40;;;;;;5062715;28;20121;-58
2022/09/02 13:23:12;;;;;;;2.75;0.98;;;26.00;99.00;;;;;;5071481;28;20421;-57
2022/09/02 13:25:56;;;;;;;2.47;0.90;;;25.70;98.30;;;;;;5072154;28;20048;-57
2022/09/02 13:28:34;;;;;;;;;;;25.80;98.00;;;;;;5072622;28;20071;-57
2022/09/02 13:31:09;;;;;;;2.72;1.27;;;25.70;97.60;;;;;;5072225;28;19970;-57
2022/09/02 13:33:34;;;;;;;1.42;0.90;;;25.90;97.70;;;;;;5071464;28;20075;-57
2022/09/02 13:36:00;;;;;;;2.75;0.90;;;25.50;97.40;;;;;;5071434;28;20064;-59
2022/09/02 13:38:28;;;;;;;4.35;1.00;;;25.90;98.10;;;;;;5105065;27;20094;-58
2022/09/02 13:40:53;;;;;;;1.92;1.00;;;26.10;98.10;;;;;;5072510;28;20054;-57
2022/09/02 13:43:22;;;;;;;4.30;0.95;;;26.20;97.90;;;;;;5070526;28;20490;-57
2022/09/02 13:45:49;;;;;;;3.08;1.10;;;25.90;97.60;;;;;;5071599;28;20052;-57
2022/09/02 13:48:20;;;;;;;1.63;1.00;;;25.90;97.50;;;;;;5070841;28;20088;-54
2022/09/02 13:50:47;;;;;;;9.02;1.10;;;26.10;97.80;;;;;;5071410;28;20040;-57
2022/09/02 13:53:33;;;;;;;3.47;1.20;;;26.40;98.00;;;;;;5072251;28;20097;-58
2022/09/02 13:56:00;;;;;;;4.80;1.10;;;26.40;97.30;;;;;;5071994;28;20040;-57
2022/09/02 13:58:29;;;;;;;2.53;1.02;;;26.40;97.70;;;;;;5071845;28;20043;-57
2022/09/02 14:00:58;;;;;;;4.85;1.80;;;26.30;97.40;;;;;;5071986;28;20215;-57
2022/09/02 14:03:24;;;;;;;3.38;1.00;;;26.40;97.80;;;;;;5071487;28;20123;-57
2022/09/02 14:05:52;;;;;;;3.97;1.05;;;26.50;97.90;;;;;;5086041;28;20080;-57
2022/09/02 14:08:21;;;;;;;3.47;1.10;;;26.50;97.60;;;;;;5072466;28;20098;-52
2022/09/02 14:10:48;;;;;;;5.35;1.55;;;26.30;97.70;;;;;;5070747;28;20046;-56
2022/09/02 14:13:15;;;;;;;4.75;1.10;;;26.40;98.00;;;;;;5072027;28;20073;-57
2022/09/02 14:15:41;;;;;;;2.35;1.00;;;26.60;98.10;;;;;;5086578;28;20064;-56
2022/09/02 14:18:09;;;;;;;2.83;1.20;;;26.50;98.10;;;;;;5071566;28;20098;-57
2022/09/02 14:20:37;;;;;;;1.85;1.00;;;26.30;97.60;;;;;;5071307;28;20047;-54
2022/09/02 14:23:03;;;;;;;4.10;1.10;;;26.50;98.20;;;;;;5070409;28;20040;-56
2022/09/02 14:25:34;;;;;;;1.85;0.90;;;26.60;97.90;;;;;;5070931;28;20044;-57
2022/09/02 14:28:06;;;;;;;3.58;1.10;;;26.60;97.90;;;;;;5071628;28;20073;-56
2022/09/02 14:30:37;;;;;;;4.13;1.38;;;26.50;97.60;;;;;;5070451;28;20044;-57
2022/09/02 14:33:21;;;;;;;3.35;1.20;;;26.50;98.50;;;;;;5069478;28;20110;-56